Time;durP1;ratioP1;P1;durP2;ratioP2;P2;SDS_P1;SDS_P2;PMS_P1;PMS_P2;Temp;Humidity;BMP_temperature;BMP_pressure;BME280_temperature;BME280_humidity;BME280_pressure;Samples;Min_cycle;Max_cycle;Signal;HPM_P1;HPM_P2
2021/07/05 00:02:24;;;;;;;1.47;0.90;;;;;;;;;;5072304;28;21024;-68
2021/07/05 00:04:51;;;;;;;1.37;0.90;;;;;;;;;;5073623;28;20937;-68
2021/07/05 00:07:19;;;;;;;2.07;0.90;;;;;;;;;;5073117;28;20421;-68
2021/07/05 00:09:45;;;;;;;1.80;0.90;;;;;;;;;;5073901;28;20459;-68
2021/07/05 00:12:11;;;;;;;1.57;0.90;;;;;;;;;;5071783;28;20429;-68
2021/07/05 00:14:38;;;;;;;2.50;1.83;;;;;;;;;;5073314;28;20950;-68
2021/07/05 00:17:04;;;;;;;1.40;0.90;;;;;;;;;;5058447;28;20433;-68
2021/07/05 00:19:30;;;;;;;2.00;1.10;;;;;;;;;;5053104;28;20402;-68
2021/07/05 00:21:56;;;;;;;1.50;0.83;;;;;;;;;;5065504;28;20433;-68
2021/07/05 00:24:22;;;;;;;1.57;0.93;;;;;;;;;;5063932;28;20465;-68
2021/07/05 00:26:48;;;;;;;1.77;1.10;;;;;;;;;;5064150;28;20431;-68
2021/07/05 00:29:14;;;;;;;2.40;1.40;;;;;;;;;;5073261;28;20815;-68
2021/07/05 00:31:41;;;;;;;1.60;1.00;;;;;;;;;;5071979;28;20424;-68
2021/07/05 00:34:07;;;;;;;1.40;0.90;;;;;;;;;;5071745;28;20435;-68
2021/07/05 00:36:33;;;;;;;2.37;0.90;;;;;;;;;;5063822;28;20424;-68
2021/07/05 00:38:59;;;;;;;1.97;1.30;;;;;;;;;;5053175;28;20408;-68
2021/07/05 00:41:25;;;;;;;2.33;1.43;;;;;;;;;;5053080;28;20409;-68
2021/07/05 00:43:51;;;;;;;1.73;1.20;;;;;;;;;;5052897;28;20417;-68
2021/07/05 00:46:17;;;;;;;1.80;0.93;;;;;;;;;;5057460;28;20413;-68
2021/07/05 00:48:43;;;;;;;1.37;0.80;;;;;;;;;;5072933;28;20408;-68
2021/07/05 00:51:09;;;;;;;2.27;1.03;;;;;;;;;;5072047;28;20400;-68
2021/07/05 00:53:35;;;;;;;1.70;0.90;;;;;;;;;;5052836;28;20426;-68
2021/07/05 00:56:01;;;;;;;1.53;1.07;;;;;;;;;;5053927;28;20395;-68
2021/07/05 00:58:27;;;;;;;2.70;1.17;;;;;;;;;;5071972;28;20459;-68
2021/07/05 01:00:53;;;;;;;2.80;1.27;;;;;;;;;;5071838;28;20775;-68
2021/07/05 01:03:19;;;;;;;1.87;1.07;;;;;;;;;;5071899;28;20439;-68
2021/07/05 01:05:45;;;;;;;2.03;0.97;;;;;;;;;;5073431;28;20445;-68
2021/07/05 01:08:11;;;;;;;2.30;1.30;;;;;;;;;;5055688;28;20547;-68
2021/07/05 01:10:38;;;;;;;3.20;2.00;;;;;;;;;;5052877;28;20839;-68
2021/07/05 01:13:04;;;;;;;3.40;1.50;;;;;;;;;;5064488;28;20507;-68
2021/07/05 01:15:31;;;;;;;3.37;1.90;;;;;;;;;;5052770;28;20537;-68
2021/07/05 01:17:57;;;;;;;6.70;1.47;;;;;;;;;;5069362;28;20894;-68
2021/07/05 01:20:26;;;;;;;2.87;1.40;;;;;;;;;;5076549;28;20409;-68
2021/07/05 01:22:52;;;;;;;2.80;1.57;;;;;;;;;;5075139;28;20456;-68
2021/07/05 01:25:20;;;;;;;1.97;1.30;;;;;;;;;;5076215;28;20436;-68
2021/07/05 01:27:47;;;;;;;3.70;1.30;;;;;;;;;;5075008;28;20421;-68
2021/07/05 01:30:14;;;;;;;2.20;1.33;;;;;;;;;;5076410;28;20401;-68
2021/07/05 01:32:40;;;;;;;3.80;1.50;;;;;;;;;;5065977;28;20449;-68
2021/07/05 01:35:07;;;;;;;3.77;2.10;;;;;;;;;;5067438;28;20404;-68
2021/07/05 01:37:33;;;;;;;2.53;1.67;;;;;;;;;;5074300;28;20455;-68
2021/07/05 01:40:00;;;;;;;5.57;1.53;;;;;;;;;;5076333;28;20455;-68
2021/07/05 01:42:26;;;;;;;3.03;1.33;;;;;;;;;;5069498;28;20497;-68
2021/07/05 01:44:52;;;;;;;3.30;1.83;;;;;;;;;;5075696;28;20456;-68
2021/07/05 01:47:18;;;;;;;2.00;1.13;;;;;;;;;;5074703;28;20418;-68
2021/07/05 01:49:45;;;;;;;2.30;1.47;;;;;;;;;;5076097;28;20765;-68
2021/07/05 01:52:15;;;;;;;1.80;1.10;;;;;;;;;;5074390;28;20399;-68
2021/07/05 01:54:41;;;;;;;5.90;1.70;;;;;;;;;;5056152;28;20394;-68
2021/07/05 01:57:24;;;;;;;3.10;1.33;;;;;;;;;;5055398;28;20910;-68
2021/07/05 01:59:54;;;;;;;2.87;1.60;;;;;;;;;;5056016;28;20383;-68
2021/07/05 02:02:20;;;;;;;1.87;1.27;;;;;;;;;;5063744;28;20448;-68
2021/07/05 02:04:47;;;;;;;2.50;1.20;;;;;;;;;;5075423;28;20498;-68
2021/07/05 02:07:13;;;;;;;2.53;1.40;;;;;;;;;;5074907;28;20963;-68
2021/07/05 02:09:39;;;;;;;1.90;1.20;;;;;;;;;;5055558;28;20394;-68
2021/07/05 02:12:05;;;;;;;2.13;1.17;;;;;;;;;;5055273;28;20398;-68
2021/07/05 02:14:31;;;;;;;1.87;1.20;;;;;;;;;;5073745;28;20494;-68
2021/07/05 02:16:57;;;;;;;2.03;1.20;;;;;;;;;;5075291;28;20402;-68
2021/07/05 02:19:23;;;;;;;4.40;1.30;;;;;;;;;;5056840;28;20479;-68
2021/07/05 02:21:49;;;;;;;3.20;1.50;;;;;;;;;;5055392;28;20398;-68
2021/07/05 02:24:16;;;;;;;5.83;1.73;;;;;;;;;;5071280;28;20471;-68
2021/07/05 02:26:43;;;;;;;2.73;1.13;;;;;;;;;;5075155;28;20496;-68
2021/07/05 02:29:10;;;;;;;1.90;1.37;;;;;;;;;;5058544;28;20429;-68
2021/07/05 02:31:36;;;;;;;2.37;1.20;;;;;;;;;;5055438;28;20440;-68
2021/07/05 02:34:02;;;;;;;1.73;1.20;;;;;;;;;;5069209;28;20460;-68
2021/07/05 02:36:28;;;;;;;2.83;1.20;;;;;;;;;;5074209;28;20512;-68
2021/07/05 02:38:54;;;;;;;2.37;1.20;;;;;;;;;;5073139;28;20928;-68
2021/07/05 02:41:20;;;;;;;1.87;1.27;;;;;;;;;;5075049;28;20401;-68
2021/07/05 02:43:46;;;;;;;1.90;1.40;;;;;;;;;;5062586;28;20450;-68
2021/07/05 02:46:12;;;;;;;3.90;1.90;;;;;;;;;;5055212;28;20414;-68
2021/07/05 02:48:40;;;;;;;2.53;1.50;;;;;;;;;;5068892;28;20440;-68
2021/07/05 02:51:08;;;;;;;2.03;1.20;;;;;;;;;;5068497;28;20487;-68
2021/07/05 02:53:34;;;;;;;2.53;1.50;;;;;;;;;;5072828;28;20483;-67
2021/07/05 02:56:00;;;;;;;2.83;1.20;;;;;;;;;;5054970;28;20859;-67
2021/07/05 02:58:26;;;;;;;1.60;1.10;;;;;;;;;;5067024;28;20420;-68
2021/07/05 03:00:53;;;;;;;2.90;1.30;;;;;;;;;;5096323;28;20392;-68
2021/07/05 03:03:20;;;;;;;2.03;1.50;;;;;;;;;;5079493;28;20813;-68
2021/07/05 03:05:46;;;;;;;1.90;1.30;;;;;;;;;;5057810;28;20818;-68
2021/07/05 03:08:12;;;;;;;2.07;1.43;;;;;;;;;;5060110;28;20467;-68
2021/07/05 03:10:39;;;;;;;2.00;1.03;;;;;;;;;;5073186;28;20755;-68
2021/07/05 03:13:06;;;;;;;2.50;1.77;;;;;;;;;;5073844;28;20775;-68
2021/07/05 03:15:33;;;;;;;2.60;1.63;;;;;;;;;;5074535;28;20405;-68
2021/07/05 03:18:00;;;;;;;3.43;1.40;;;;;;;;;;5069810;28;20487;-67
2021/07/05 03:20:27;;;;;;;2.27;1.73;;;;;;;;;;5053969;28;20894;-68
2021/07/05 03:22:55;;;;;;;2.20;1.27;;;;;;;;;;5054302;28;20464;-68
2021/07/05 03:25:23;;;;;;;2.53;1.50;;;;;;;;;;5053975;28;20496;-67
2021/07/05 03:27:50;;;;;;;2.90;1.73;;;;;;;;;;5053959;28;20403;-67
2021/07/05 03:30:17;;;;;;;1.80;1.23;;;;;;;;;;5053781;28;20401;-67
2021/07/05 03:32:44;;;;;;;1.70;1.20;;;;;;;;;;5053030;28;20487;-67
2021/07/05 03:35:10;;;;;;;2.27;1.60;;;;;;;;;;5073683;28;20450;-68
2021/07/05 03:37:37;;;;;;;2.30;1.50;;;;;;;;;;5073294;28;20401;-67
2021/07/05 03:40:04;;;;;;;4.43;1.47;;;;;;;;;;5073075;28;20401;-68
2021/07/05 03:42:30;;;;;;;3.10;2.03;;;;;;;;;;5068687;28;20456;-68
2021/07/05 03:44:56;;;;;;;2.40;1.37;;;;;;;;;;5059853;28;20461;-68
2021/07/05 03:47:22;;;;;;;2.07;1.47;;;;;;;;;;5053699;28;20409;-68
2021/07/05 03:49:48;;;;;;;2.17;1.60;;;;;;;;;;5071192;28;20429;-68
2021/07/05 03:52:15;;;;;;;3.87;1.80;;;;;;;;;;5073453;28;20407;-68
2021/07/05 03:54:41;;;;;;;3.00;2.03;;;;;;;;;;5072637;28;20447;-68
2021/07/05 03:57:21;;;;;;;3.03;2.13;;;;;;;;;;5073972;28;20405;-68
2021/07/05 03:59:47;;;;;;;4.70;2.10;;;;;;;;;;5070289;28;20428;-67
2021/07/05 04:02:13;;;;;;;3.13;1.57;;;;;;;;;;5073401;28;20474;-68
2021/07/05 04:04:39;;;;;;;5.63;1.87;;;;;;;;;;5072352;28;20513;-68
2021/07/05 04:07:05;;;;;;;2.53;1.53;;;;;;;;;;5073450;28;20402;-68
2021/07/05 04:09:31;;;;;;;3.37;1.57;;;;;;;;;;5072861;28;20420;-68
2021/07/05 04:11:57;;;;;;;1.90;1.47;;;;;;;;;;5073509;28;20397;-68
2021/07/05 04:14:23;;;;;;;3.83;1.93;;;;;;;;;;5072397;28;20436;-68
2021/07/05 04:16:49;;;;;;;2.37;1.60;;;;;;;;;;5072347;28;20429;-68
2021/07/05 04:19:15;;;;;;;5.03;2.40;;;;;;;;;;5072184;28;20433;-68
2021/07/05 04:21:42;;;;;;;2.43;1.77;;;;;;;;;;5073442;28;20407;-68
2021/07/05 04:24:08;;;;;;;3.37;1.90;;;;;;;;;;5072034;28;20475;-68
2021/07/05 04:26:34;;;;;;;2.63;1.53;;;;;;;;;;5073537;28;20401;-68
2021/07/05 04:29:00;;;;;;;2.03;1.43;;;;;;;;;;5075955;28;20480;-68
2021/07/05 04:31:26;;;;;;;2.53;1.40;;;;;;;;;;5074181;28;20443;-69
2021/07/05 04:33:52;;;;;;;1.90;1.50;;;;;;;;;;5072336;28;20453;-68
2021/07/05 04:36:18;;;;;;;3.60;1.60;;;;;;;;;;5064774;28;20475;-68
2021/07/05 04:38:44;;;;;;;2.37;1.67;;;;;;;;;;5053383;28;20493;-68
2021/07/05 04:41:10;;;;;;;2.93;1.30;;;;;;;;;;5062245;28;20439;-68
2021/07/05 04:43:36;;;;;;;3.00;1.60;;;;;;;;;;5073509;28;20421;-68
2021/07/05 04:46:07;;;;;;;2.37;1.50;;;;;;;;;;5066536;28;20871;-68
2021/07/05 04:48:33;;;;;;;3.47;1.60;;;;;;;;;;5053784;28;20413;-68
2021/07/05 04:50:59;;;;;;;2.30;1.60;;;;;;;;;;5056751;28;20428;-69
2021/07/05 04:53:26;;;;;;;3.70;1.60;;;;;;;;;;5057017;28;20473;-68
2021/07/05 04:55:53;;;;;;;2.87;1.50;;;;;;;;;;5061725;28;20503;-68
2021/07/05 04:58:19;;;;;;;2.63;1.80;;;;;;;;;;5078141;28;20488;-68
2021/07/05 05:00:45;;;;;;;1.50;1.10;;;;;;;;;;5076501;28;21538;-69
2021/07/05 05:03:11;;;;;;;2.03;1.40;;;;;;;;;;5076762;28;20480;-68
2021/07/05 05:05:40;;;;;;;4.73;1.53;;;;;;;;;;5077020;28;20444;-68
2021/07/05 05:08:06;;;;;;;2.00;1.30;;;;;;;;;;5077086;28;20866;-68
2021/07/05 05:10:32;;;;;;;3.27;1.50;;;;;;;;;;5076602;28;20401;-68
2021/07/05 05:12:58;;;;;;;1.90;1.27;;;;;;;;;;5077157;28;20412;-68
2021/07/05 05:15:24;;;;;;;1.60;1.07;;;;;;;;;;5076656;28;20401;-70
2021/07/05 05:17:50;;;;;;;3.10;1.80;;;;;;;;;;5076769;28;20889;-68
2021/07/05 05:20:18;;;;;;;3.40;1.50;;;;;;;;;;5076977;28;20417;-68
2021/07/05 05:22:44;;;;;;;2.00;1.43;;;;;;;;;;5057673;28;20477;-68
2021/07/05 05:25:11;;;;;;;2.53;1.60;;;;;;;;;;5056654;28;20445;-68
2021/07/05 05:27:37;;;;;;;2.80;1.40;;;;;;;;;;5074142;28;20826;-68
2021/07/05 05:30:04;;;;;;;3.40;1.30;;;;;;;;;;5076732;28;20486;-68
2021/07/05 05:32:30;;;;;;;3.20;1.40;;;;;;;;;;5075235;28;20504;-68
2021/07/05 05:34:56;;;;;;;5.40;1.23;;;;;;;;;;5076474;28;20397;-68
2021/07/05 05:37:22;;;;;;;2.30;1.20;;;;;;;;;;5084343;28;20443;-68
2021/07/05 05:39:48;;;;;;;1.90;1.20;;;;;;;;;;5097004;28;20396;-68
2021/07/05 05:42:14;;;;;;;1.63;1.10;;;;;;;;;;5068461;28;20785;-68
2021/07/05 05:44:40;;;;;;;2.30;1.20;;;;;;;;;;5056568;28;20453;-68
2021/07/05 05:47:06;;;;;;;1.87;1.20;;;;;;;;;;5068214;28;20516;-68
2021/07/05 05:49:32;;;;;;;1.70;1.10;;;;;;;;;;5076638;28;20405;-68
2021/07/05 05:51:58;;;;;;;3.10;1.40;;;;;;;;;;5075538;28;20420;-68
2021/07/05 05:54:24;;;;;;;4.30;1.60;;;;;;;;;;5077081;28;20401;-68
2021/07/05 05:56:52;;;;;;;2.03;1.47;;;;;;;;;;5074979;28;20432;-68
2021/07/05 05:59:19;;;;;;;2.40;1.30;;;;;;;;;;5075920;28;20417;-67
2021/07/05 06:01:50;;;;;;;2.97;1.80;;;;;;;;;;5074670;28;20448;-67
2021/07/05 06:04:16;;;;;;;1.53;0.90;;;;;;;;;;5075256;28;20522;-68
2021/07/05 06:06:42;;;;;;;1.80;1.07;;;;;;;;;;5077815;28;20506;-68
2021/07/05 06:09:08;;;;;;;1.80;1.07;;;;;;;;;;5074382;28;20421;-68
2021/07/05 06:11:36;;;;;;;3.47;1.20;;;;;;;;;;5072551;28;20790;-68
2021/07/05 06:14:03;;;;;;;4.70;1.97;;;;;;;;;;5075727;28;20478;-68
2021/07/05 06:16:29;;;;;;;2.10;1.20;;;;;;;;;;5074485;28;20429;-68
2021/07/05 06:18:55;;;;;;;2.67;1.27;;;;;;;;;;5073734;28;20400;-68
2021/07/05 06:21:21;;;;;;;1.80;1.00;;;;;;;;;;5072670;28;20425;-68
2021/07/05 06:23:48;;;;;;;2.33;1.20;;;;;;;;;;5075220;28;20494;-68
2021/07/05 06:26:15;;;;;;;2.57;1.50;;;;;;;;;;5063580;28;20426;-68
2021/07/05 06:28:41;;;;;;;1.80;1.20;;;;;;;;;;5060109;28;20944;-68
2021/07/05 06:31:07;;;;;;;2.30;1.50;;;;;;;;;;5073382;28;20467;-66
2021/07/05 06:33:33;;;;;;;5.33;2.23;;;;;;;;;;5070676;28;20428;-67
2021/07/05 06:36:00;;;;;;;2.77;1.83;;;;;;;;;;5072738;28;20478;-67
2021/07/05 06:38:26;;;;;;;2.00;1.10;;;;;;;;;;5062034;28;20460;-67
2021/07/05 06:40:54;;;;;;;3.87;1.10;;;;;;;;;;5059711;28;20413;-67
2021/07/05 06:43:20;;;;;;;2.10;1.10;;;;;;;;;;5070933;28;20502;-67
2021/07/05 06:45:46;;;;;;;2.33;1.00;;;;;;;;;;5080175;28;20460;-67
2021/07/05 06:48:13;;;;;;;2.13;1.30;;;;;;;;;;5064455;28;20787;-67
2021/07/05 06:50:40;;;;;;;1.70;1.13;;;;;;;;;;5069159;28;20432;-67
2021/07/05 06:53:07;;;;;;;1.90;1.10;;;;;;;;;;5060255;28;20468;-68
2021/07/05 06:55:33;;;;;;;1.97;1.20;;;;;;;;;;5059161;28;20416;-68
2021/07/05 06:58:00;;;;;;;1.80;0.93;;;;;;;;;;5078998;28;20428;-68
2021/07/05 07:00:27;;;;;;;1.47;1.00;;;;;;;;;;5069237;28;20421;-68
2021/07/05 07:02:53;;;;;;;1.60;1.00;;;;;;;;;;5058494;28;20987;-68
2021/07/05 07:05:20;;;;;;;3.43;1.30;;;;;;;;;;5071588;28;21033;-67
2021/07/05 07:07:47;;;;;;;1.77;1.00;;;;;;;;;;5071387;28;20421;-68
2021/07/05 07:10:14;;;;;;;2.30;1.00;;;;;;;;;;5074868;28;20427;-68
2021/07/05 07:12:42;;;;;;;3.20;1.60;;;;;;;;;;5072104;28;20572;-67
2021/07/05 07:15:10;;;;;;;2.43;1.20;;;;;;;;;;5070971;28;20421;-68
2021/07/05 07:17:39;;;;;;;2.00;1.10;;;;;;;;;;5063493;28;20444;-68
2021/07/05 07:20:11;;;;;;;1.83;1.03;;;;;;;;;;5066032;28;20440;-67
2021/07/05 07:22:37;;;;;;;1.77;1.10;;;;;;;;;;5067573;28;20456;-68
2021/07/05 07:25:07;;;;;;;3.70;1.30;;;;;;;;;;5064227;28;21147;-67
2021/07/05 07:27:33;;;;;;;3.73;1.13;;;;;;;;;;5066142;28;20417;-68
2021/07/05 07:29:59;;;;;;;3.57;1.10;;;;;;;;;;5074947;28;20433;-67
2021/07/05 07:32:26;;;;;;;4.50;1.00;;;;;;;;;;5059047;28;20517;-68
2021/07/05 07:34:52;;;;;;;2.40;1.40;;;;;;;;;;5066514;28;20441;-68
2021/07/05 07:37:18;;;;;;;1.70;1.10;;;;;;;;;;5069883;28;20439;-68
2021/07/05 07:39:47;;;;;;;2.73;1.20;;;;;;;;;;5065435;28;20494;-67
2021/07/05 07:42:13;;;;;;;2.53;1.33;;;;;;;;;;5068527;28;20429;-67
2021/07/05 07:44:39;;;;;;;2.30;1.47;;;;;;;;;;5070423;28;20883;-67
2021/07/05 07:47:07;;;;;;;3.33;2.37;;;;;;;;;;5064111;28;20494;-68
2021/07/05 07:49:33;;;;;;;1.80;0.90;;;;;;;;;;5069385;28;20416;-68
2021/07/05 07:52:00;;;;;;;1.83;1.00;;;;;;;;;;5058414;28;20404;-67
2021/07/05 07:54:26;;;;;;;2.43;1.10;;;;;;;;;;5062223;28;20428;-67
2021/07/05 07:56:52;;;;;;;2.03;0.97;;;;;;;;;;5071973;28;20827;-67
2021/07/05 07:59:18;;;;;;;3.70;1.33;;;;;;;;;;5068227;28;20425;-67
2021/07/05 08:01:44;;;;;;;1.70;0.80;;;;;;;;;;5068362;28;21724;-67
2021/07/05 08:04:12;;;;;;;3.33;0.93;;;;;;;;;;5069211;28;20471;-68
2021/07/05 08:06:38;;;;;;;2.10;1.30;;;;;;;;;;5069824;28;20404;-68
2021/07/05 08:09:05;;;;;;;3.80;1.30;;;;;;;;;;5070057;28;20478;-68
2021/07/05 08:11:32;;;;;;;2.40;1.10;;;;;;;;;;5070064;28;20471;-68
2021/07/05 08:14:02;;;;;;;2.37;1.03;;;;;;;;;;5067723;28;20547;-67
2021/07/05 08:16:28;;;;;;;2.37;1.30;;;;;;;;;;5064069;28;20473;-67
2021/07/05 08:18:55;;;;;;;3.00;1.00;;;;;;;;;;5059987;28;20421;-67
2021/07/05 08:21:21;;;;;;;2.10;1.10;;;;;;;;;;5069354;28;20413;-68
2021/07/05 08:23:47;;;;;;;1.80;1.00;;;;;;;;;;5067042;28;20470;-68
2021/07/05 08:26:13;;;;;;;4.17;1.57;;;;;;;;;;5069304;28;20927;-68
2021/07/05 08:28:39;;;;;;;2.13;1.20;;;;;;;;;;5066922;28;20424;-67
2021/07/05 08:31:07;;;;;;;1.67;0.90;;;;;;;;;;5070302;28;20413;-68
2021/07/05 08:33:33;;;;;;;1.60;0.80;;;;;;;;;;5068143;28;20527;-66
2021/07/05 08:35:59;;;;;;;2.37;1.10;;;;;;;;;;5068291;28;20432;-66
2021/07/05 08:38:26;;;;;;;2.00;1.00;;;;;;;;;;5062658;28;20925;-67
2021/07/05 08:40:52;;;;;;;2.57;1.13;;;;;;;;;;5071507;28;20898;-66
2021/07/05 08:43:24;;;;;;;1.83;1.07;;;;;;;;;;5066604;28;20743;-67
2021/07/05 08:45:52;;;;;;;8.00;1.57;;;;;;;;;;5069080;28;20590;-68
2021/07/05 08:48:18;;;;;;;1.90;1.10;;;;;;;;;;5067133;28;20420;-68
2021/07/05 08:50:47;;;;;;;1.70;1.07;;;;;;;;;;5069611;28;20912;-68
2021/07/05 08:53:13;;;;;;;2.37;1.20;;;;;;;;;;5067848;28;20799;-68
2021/07/05 08:55:40;;;;;;;2.33;1.00;;;;;;;;;;5068345;28;20485;-67
2021/07/05 08:58:07;;;;;;;2.37;1.00;;;;;;;;;;5068019;28;20781;-68
2021/07/05 09:00:33;;;;;;;2.67;1.50;;;;;;;;;;5068154;28;20981;-66
2021/07/05 09:03:01;;;;;;;1.70;1.10;;;;;;;;;;5068636;28;20829;-67
2021/07/05 09:05:27;;;;;;;2.10;1.00;;;;;;;;;;5068544;28;20452;-68
2021/07/05 09:08:03;;;;;;;2.90;0.83;;;;;;;;;;5062710;28;20427;-67
2021/07/05 09:10:39;;;;;;;3.20;1.00;;;;;;;;;;5061479;28;20764;-66
2021/07/05 09:13:13;;;;;;;2.97;1.00;;;;;;;;;;5066326;28;20455;-68
2021/07/05 09:15:41;;;;;;;2.27;1.20;;;;;;;;;;5066490;28;20515;-68
2021/07/05 09:18:25;;;;;;;2.13;1.10;;;;;;;;;;5067038;28;20425;-66
2021/07/05 09:20:52;;;;;;;2.90;0.97;;;;;;;;;;5070123;28;20416;-68
2021/07/05 09:23:18;;;;;;;2.00;1.17;;;;;;;;;;5064431;28;20559;-68
2021/07/05 09:25:47;;;;;;;2.70;1.17;;;;;;;;;;5065602;28;20552;-68
2021/07/05 09:28:13;;;;;;;2.23;1.20;;;;;;;;;;5061966;28;20477;-68
2021/07/05 09:30:41;;;;;;;4.80;1.20;;;;;;;;;;5062461;28;20409;-68
2021/07/05 09:33:18;;;;;;;1.90;1.10;;;;;;;;;;5061045;28;20439;-68
2021/07/05 09:35:44;;;;;;;2.03;1.10;;;;;;;;;;5069822;28;20457;-68
2021/07/05 09:38:10;;;;;;;2.83;1.50;;;;;;;;;;5069449;28;20424;-68
2021/07/05 09:40:36;;;;;;;1.63;0.87;;;;;;;;;;5092920;22;20494;-82
2021/07/05 09:43:20;;;;;;;1.80;1.10;;;;;;;;;;5096639;28;20400;-83
2021/07/05 09:45:46;;;;;;;2.23;1.10;;;;;;;;;;5097729;28;20453;-81
2021/07/05 09:48:20;;;;;;;2.10;1.30;;;;;;;;;;5088088;28;20507;-82
2021/07/05 09:50:47;;;;;;;2.80;1.20;;;;;;;;;;5087422;28;20440;-83
2021/07/05 09:53:25;;;;;;;1.77;0.90;;;;;;;;;;5081847;28;20430;-83
2021/07/05 09:55:51;;;;;;;2.10;1.13;;;;;;;;;;5076589;28;20436;-82
2021/07/05 09:58:29;;;;;;;3.87;1.00;;;;;;;;;;5082503;28;20436;-82
2021/07/05 10:00:55;;;;;;;2.00;0.90;;;;;;;;;;5080346;28;20575;-83
2021/07/05 10:03:33;;;;;;;2.83;0.93;;;;;;;;;;5083669;28;21089;-82
2021/07/05 10:06:14;;;;;;;2.03;1.10;;;;;;;;;;5084029;28;20802;-82
2021/07/05 10:08:40;;;;;;;2.37;1.67;;;;;;;;;;5082552;28;20426;-82
2021/07/05 10:11:07;;;;;;;1.70;1.00;;;;;;;;;;5075705;28;20429;-83
2021/07/05 10:13:33;;;;;;;2.40;1.17;;;;;;;;;;5083391;28;20817;-82
2021/07/05 10:16:05;;;;;;;2.13;1.13;;;;;;;;;;5085901;28;20424;-81
2021/07/05 10:18:31;;;;;;;2.60;1.13;;;;;;;;;;5078296;28;20439;-80
2021/07/05 10:20:58;;;;;;;2.83;1.10;;;;;;;;;;5094338;28;20417;-82
2021/07/05 10:23:24;;;;;;;2.20;1.20;;;;;;;;;;5081767;28;21185;-81
2021/07/05 10:25:50;;;;;;;3.27;1.20;;;;;;;;;;5083034;28;20443;-80
2021/07/05 10:28:17;;;;;;;2.00;1.00;;;;;;;;;;5079684;28;20762;-81
2021/07/05 10:30:44;;;;;;;5.07;1.50;;;;;;;;;;5080469;28;20420;-81
2021/07/05 10:33:10;;;;;;;2.13;1.23;;;;;;;;;;5081381;28;20416;-81
2021/07/05 10:35:49;;;;;;;2.00;1.27;;;;;;;;;;5081720;28;20731;-82
2021/07/05 10:38:18;;;;;;;1.93;1.17;;;;;;;;;;5074234;28;20401;-78
2021/07/05 10:40:47;;;;;;;2.40;1.20;;;;;;;;;;5080531;28;20424;-83
2021/07/05 10:43:15;;;;;;;1.97;1.00;;;;;;;;;;5078302;28;20432;-83
2021/07/05 10:45:41;;;;;;;5.80;1.33;;;;;;;;;;5081437;28;20469;-84
2021/07/05 10:48:08;;;;;;;2.10;0.90;;;;;;;;;;5078023;28;20928;-81
2021/07/05 10:50:34;;;;;;;2.23;1.00;;;;;;;;;;5078614;28;20417;-83
2021/07/05 10:53:00;;;;;;;2.27;0.93;;;;;;;;;;5083323;28;20444;-82
2021/07/05 10:55:45;;;;;;;4.93;1.00;;;;;;;;;;5084673;28;20421;-81
2021/07/05 10:58:14;;;;;;;2.30;1.20;;;;;;;;;;5095460;28;20461;-81
2021/07/05 11:00:41;;;;;;;1.60;0.90;;;;;;;;;;5079294;28;20442;-83
2021/07/05 11:03:08;;;;;;;3.40;1.17;;;;;;;;;;5091955;28;20493;-82
2021/07/05 11:05:45;;;;;;;1.87;0.90;;;;;;;;;;5081781;28;20535;-81
2021/07/05 11:08:18;;;;;;;2.07;1.20;;;;;;;;;;5073729;28;20416;-80
2021/07/05 11:10:44;;;;;;;2.73;1.07;;;;;;;;;;5077768;28;20424;-83
2021/07/05 11:13:11;;;;;;;1.70;1.00;;;;;;;;;;5083365;28;20438;-84
2021/07/05 11:15:49;;;;;;;2.00;1.00;;;;;;;;;;5075416;28;20413;-80
2021/07/05 11:18:33;;;;;;;2.00;1.20;;;;;;;;;;5075373;28;20416;-77
2021/07/05 11:20:59;;;;;;;1.90;1.00;;;;;;;;;;5076659;28;20426;-78
2021/07/05 11:23:25;;;;;;;1.80;1.00;;;;;;;;;;5076297;28;20444;-78
2021/07/05 11:26:11;;;;;;;3.20;0.90;;;;;;;;;;5079465;28;20822;-79
2021/07/05 11:28:37;;;;;;;1.50;0.83;;;;;;;;;;5073436;28;20401;-79
2021/07/05 11:31:19;;;;;;;1.80;1.00;;;;;;;;;;5075202;28;20452;-78
2021/07/05 11:33:45;;;;;;;2.30;1.17;;;;;;;;;;5072976;28;20458;-79
2021/07/05 11:36:20;;;;;;;5.30;1.03;;;;;;;;;;5073666;28;20960;-78
2021/07/05 11:38:57;;;;;;;3.40;0.80;;;;;;;;;;5071620;28;20416;-78
2021/07/05 11:41:25;;;;;;;3.53;1.10;;;;;;;;;;5068967;28;20415;-79
2021/07/05 11:43:55;;;;;;;2.97;1.00;;;;;;;;;;5074457;28;20429;-79
2021/07/05 11:46:27;;;;;;;2.87;2.17;;;;;;;;;;5081481;28;20458;-80
2021/07/05 11:49:05;;;;;;;1.70;0.93;;;;;;;;;;5058326;28;20960;-80
2021/07/05 11:51:31;;;;;;;4.63;0.90;;;;;;;;;;5073358;28;20408;-79
2021/07/05 11:54:04;;;;;;;2.80;1.00;;;;;;;;;;5073841;28;20490;-81
2021/07/05 11:56:36;;;;;;;2.77;1.10;;;;;;;;;;5078412;28;20432;-80
2021/07/05 11:59:04;;;;;;;1.90;1.20;;;;;;;;;;5076956;28;20503;-78
2021/07/05 12:01:31;;;;;;;2.60;1.10;;;;;;;;;;5069944;28;20421;-79
2021/07/05 12:03:58;;;;;;;1.57;0.80;;;;;;;;;;5076128;28;20432;-79
2021/07/05 12:06:24;;;;;;;1.50;0.90;;;;;;;;;;5069461;28;20436;-81
2021/07/05 12:09:00;;;;;;;1.90;1.00;;;;;;;;;;5079117;28;20477;-81
2021/07/05 12:11:27;;;;;;;3.30;1.20;;;;;;;;;;5078690;28;20427;-83
2021/07/05 12:14:08;;;;;;;2.50;1.40;;;;;;;;;;5073414;28;20408;-80
2021/07/05 12:16:34;;;;;;;2.00;1.10;;;;;;;;;;5069134;28;20444;-78
2021/07/05 12:19:02;;;;;;;2.10;1.23;;;;;;;;;;5075052;28;20477;-79
2021/07/05 12:21:36;;;;;;;2.20;0.93;;;;;;;;;;5077280;28;20432;-83
2021/07/05 12:24:09;;;;;;;3.67;1.00;;;;;;;;;;5079281;28;20420;-83
2021/07/05 12:26:49;;;;;;;2.03;1.20;;;;;;;;;;5078465;28;20440;-82
2021/07/05 12:29:22;;;;;;;2.33;1.53;;;;;;;;;;5067276;28;20475;-82
2021/07/05 12:32:00;;;;;;;2.80;1.30;;;;;;;;;;5074419;28;20412;-83
2021/07/05 12:34:50;;;;;;;3.00;1.20;;;;;;;;;;5074301;28;20446;-80
2021/07/05 12:37:22;;;;;;;2.57;1.13;;;;;;;;;;5068223;28;20527;-82
2021/07/05 12:39:51;;;;;;;3.70;1.17;;;;;;;;;;5076080;28;20468;-79
2021/07/05 12:42:28;;;;;;;2.70;1.17;;;;;;;;;;5085242;28;20439;-80
2021/07/05 12:44:55;;;;;;;2.00;1.13;;;;;;;;;;5077147;28;20521;-78
2021/07/05 12:47:21;;;;;;;2.37;1.10;;;;;;;;;;5070750;28;20442;-79
2021/07/05 12:49:48;;;;;;;2.20;1.00;;;;;;;;;;5074313;28;20428;-81
2021/07/05 12:52:14;;;;;;;3.97;1.77;;;;;;;;;;5072288;28;20428;-79
2021/07/05 12:54:40;;;;;;;2.70;1.27;;;;;;;;;;5074080;28;20428;-81
2021/07/05 12:57:11;;;;;;;4.90;1.30;;;;;;;;;;5084021;28;20559;-80
2021/07/05 12:59:39;;;;;;;1.70;1.00;;;;;;;;;;5085733;28;20432;-82
2021/07/05 13:02:05;;;;;;;2.33;1.30;;;;;;;;;;5079184;28;20547;-81
2021/07/05 13:04:31;;;;;;;1.60;0.90;;;;;;;;;;5077484;28;21047;-79
2021/07/05 13:07:03;;;;;;;3.10;1.33;;;;;;;;;;5071204;28;20807;-81
2021/07/05 13:09:30;;;;;;;2.37;1.27;;;;;;;;;;5078259;28;20529;-81
2021/07/05 13:12:02;;;;;;;2.33;1.30;;;;;;;;;;5080347;28;20412;-81
2021/07/05 13:14:33;;;;;;;2.97;1.10;;;;;;;;;;5076210;28;20435;-81
2021/07/05 13:17:12;;;;;;;3.10;1.17;;;;;;;;;;5078382;28;20435;-80
2021/07/05 13:19:38;;;;;;;1.77;1.07;;;;;;;;;;5078133;28;20416;-81
2021/07/05 13:22:27;;;;;;;3.50;1.23;;;;;;;;;;5080415;28;20411;-82
2021/07/05 13:24:56;;;;;;;3.20;1.17;;;;;;;;;;5081701;28;20530;-83
2021/07/05 13:27:27;;;;;;;2.03;1.23;;;;;;;;;;5089022;28;20436;-81
2021/07/05 13:29:55;;;;;;;2.80;1.03;;;;;;;;;;5084338;28;20428;-81
2021/07/05 13:32:23;;;;;;;1.80;1.07;;;;;;;;;;5085750;28;20484;-80
2021/07/05 13:34:50;;;;;;;3.73;0.87;;;;;;;;;;5089466;28;20458;-82
2021/07/05 13:37:22;;;;;;;2.33;1.20;;;;;;;;;;5084181;28;20478;-80
2021/07/05 13:39:49;;;;;;;1.90;0.80;;;;;;;;;;5084918;28;20475;-80
2021/07/05 13:42:15;;;;;;;2.23;1.00;;;;;;;;;;5090004;28;20950;-80
2021/07/05 13:44:42;;;;;;;2.90;1.20;;;;;;;;;;5082804;28;20456;-79
2021/07/05 13:47:11;;;;;;;3.03;1.27;;;;;;;;;;5079753;28;20478;-83
2021/07/05 13:49:37;;;;;;;2.17;1.20;;;;;;;;;;5080435;28;20420;-81
2021/07/05 13:52:03;;;;;;;2.33;1.27;;;;;;;;;;5078945;28;20509;-82
2021/07/05 13:54:29;;;;;;;2.00;1.10;;;;;;;;;;5077787;28;21720;-81
2021/07/05 13:57:18;;;;;;;2.53;1.87;;;;;;;;;;5083560;28;20803;-84
2021/07/05 13:59:45;;;;;;;2.03;1.27;;;;;;;;;;5078595;28;20535;-79
2021/07/05 14:02:14;;;;;;;2.10;1.10;;;;;;;;;;5078083;28;20529;-80
2021/07/05 14:04:41;;;;;;;1.73;1.00;;;;;;;;;;5072336;28;20467;-81
2021/07/05 14:07:07;;;;;;;1.70;1.00;;;;;;;;;;5077643;28;20432;-80
2021/07/05 14:09:33;;;;;;;2.43;1.27;;;;;;;;;;5083593;28;20551;-79
2021/07/05 14:11:59;;;;;;;2.23;1.03;;;;;;;;;;5092186;28;20413;-82
2021/07/05 14:14:25;;;;;;;3.87;1.10;;;;;;;;;;5083852;28;20886;-80
2021/07/05 14:16:53;;;;;;;2.60;1.50;;;;;;;;;;5081372;28;20440;-80
2021/07/05 14:19:19;;;;;;;1.70;0.90;;;;;;;;;;5083061;28;20420;-80
2021/07/05 14:21:45;;;;;;;2.63;1.30;;;;;;;;;;5080694;28;20423;-81
2021/07/05 14:24:12;;;;;;;1.90;1.20;;;;;;;;;;5083027;28;20416;-81
2021/07/05 14:26:38;;;;;;;1.80;1.10;;;;;;;;;;5084525;28;20944;-80
2021/07/05 14:29:04;;;;;;;3.67;0.90;;;;;;;;;;5077944;28;21075;-83
2021/07/05 14:31:30;;;;;;;2.30;1.13;;;;;;;;;;5078750;28;20425;-80
2021/07/05 14:33:56;;;;;;;1.70;0.90;;;;;;;;;;5071925;28;22190;-80
2021/07/05 14:36:22;;;;;;;2.83;1.20;;;;;;;;;;5087640;28;20459;-83
2021/07/05 14:38:49;;;;;;;2.90;1.17;;;;;;;;;;5075384;28;20413;-80
2021/07/05 14:41:15;;;;;;;4.33;2.00;;;;;;;;;;5071694;28;20945;-80
2021/07/05 14:43:41;;;;;;;2.00;1.10;;;;;;;;;;5078023;28;20424;-83
2021/07/05 14:46:07;;;;;;;3.20;0.90;;;;;;;;;;5093547;28;20463;-80
2021/07/05 14:48:33;;;;;;;2.00;0.93;;;;;;;;;;5077837;28;20533;-82